CPX318 Details

Departure: Phoenix Sky Harbor International Airport (KPHX)
Arrival: Portland International Airport (KPDX)
Route: ZEPER1 SISIE DOVEE BTY KO48I SOERN TMBRS2


Current Weather Information
KPHX 251151Z 10006KT 10SM FEW250 18/M02 A2979 RMK AO2 SLP074 T01781017 10250 20178 53005
KPDX 251153Z 21009KT 10SM SCT035 BKN041 OVC049 11/07 A3002 RMK AO2 RAB1056E05 SLP163 P0000 60000 70005 T01110072 10128 20111 55003